createdAt,value
2019-03-31T00:00:15.856Z,61.40
2019-03-31T00:02:44.803Z,61.60
2019-03-31T00:05:13.692Z,61.60
2019-03-31T00:07:42.686Z,61.40
2019-03-31T00:10:11.818Z,61.50
2019-03-31T00:12:40.776Z,62.10
2019-03-31T00:15:10.075Z,62.20
2019-03-31T00:17:39.071Z,62.40
2019-03-31T00:20:08.270Z,62.10
2019-03-31T00:22:37.155Z,61.70
2019-03-31T00:25:06.740Z,61.70
2019-03-31T00:27:35.555Z,62.20
2019-03-31T00:30:04.930Z,62.40
2019-03-31T00:32:33.846Z,62.80
2019-03-31T00:35:02.735Z,63.10
2019-03-31T00:37:31.636Z,62.80
2019-03-31T00:40:00.517Z,62.70
2019-03-31T00:42:29.411Z,63.00
2019-03-31T00:44:58.196Z,63.20
2019-03-31T00:47:26.987Z,63.60
2019-03-31T00:49:55.881Z,63.30
2019-03-31T00:52:24.870Z,63.40
2019-03-31T00:54:53.645Z,63.50
2019-03-31T00:57:22.449Z,63.50
2019-03-31T00:59:51.336Z,63.90
2019-03-31T01:02:22.070Z,64.20
2019-03-31T01:04:51.268Z,64.10
2019-03-31T01:07:21.986Z,64.30
2019-03-31T01:09:50.775Z,64.50
2019-03-31T01:12:19.893Z,65.10
2019-03-31T01:14:48.979Z,65.30
2019-03-31T01:17:18.985Z,65.30
2019-03-31T01:19:48.387Z,65.60
2019-03-31T01:22:17.293Z,66.20
2019-03-31T01:24:46.281Z,66.50
2019-03-31T01:27:15.583Z,66.80
2019-03-31T01:29:44.470Z,67.10
2019-03-31T01:32:13.470Z,67.10
2019-03-31T01:34:42.461Z,67.40
2019-03-31T01:37:11.557Z,67.80
2019-03-31T01:39:40.653Z,68.50
2019-03-31T01:42:09.540Z,68.90
2019-03-31T01:44:38.431Z,68.70
2019-03-31T01:47:08.449Z,68.80
2019-03-31T01:49:37.336Z,68.90
2019-03-31T01:52:06.524Z,69.10
2019-03-31T01:54:35.630Z,69.70
2019-03-31T01:57:04.541Z,70.20
2019-03-31T01:59:33.308Z,70.20
2019-03-31T02:02:04.381Z,70.60
2019-03-31T02:04:32.836Z,70.60
2019-03-31T02:07:01.932Z,71.00
2019-03-31T02:09:30.820Z,72.20
2019-03-31T02:11:59.604Z,73.80
2019-03-31T02:14:28.602Z,75.20
2019-03-31T02:16:57.493Z,75.50
2019-03-31T02:19:26.384Z,74.90
2019-03-31T02:21:55.478Z,73.90
2019-03-31T02:24:24.467Z,73.50
2019-03-31T02:26:53.464Z,74.10
2019-03-31T02:29:22.458Z,74.20
2019-03-31T02:31:51.244Z,73.90
2019-03-31T02:34:20.036Z,73.60
2019-03-31T02:36:48.908Z,73.50
2019-03-31T02:39:17.811Z,74.60
2019-03-31T02:41:46.703Z,74.90
2019-03-31T02:44:15.592Z,74.30
2019-03-31T02:46:44.383Z,74.10
2019-03-31T02:49:13.273Z,74.20
2019-03-31T02:51:42.368Z,74.80
2019-03-31T02:54:11.448Z,74.60
2019-03-31T02:56:41.904Z,74.70
2019-03-31T02:59:13.956Z,75.20
2019-03-31T03:01:43.374Z,75.80
2019-03-31T03:04:14.703Z,75.90
2019-03-31T03:06:44.001Z,76.40
2019-03-31T03:09:12.998Z,76.60
2019-03-31T03:11:42.825Z,76.50
2019-03-31T03:14:13.032Z,76.50
2019-03-31T03:16:41.921Z,76.90
2019-03-31T03:19:10.921Z,76.80
2019-03-31T03:21:39.805Z,76.80
2019-03-31T03:24:08.595Z,77.10
2019-03-31T03:26:37.385Z,77.40
2019-03-31T03:29:06.476Z,77.40
2019-03-31T03:31:35.588Z,77.70
2019-03-31T03:34:04.469Z,77.70
2019-03-31T03:36:33.256Z,78.20
2019-03-31T03:39:02.143Z,78.10
2019-03-31T03:41:30.935Z,79.30
2019-03-31T03:44:02.316Z,78.60
2019-03-31T03:46:30.352Z,78.50
2019-03-31T03:48:59.271Z,78.20
2019-03-31T03:51:28.133Z,78.50
2019-03-31T03:53:57.023Z,78.90
2019-03-31T03:56:29.093Z,79.20
2019-03-31T03:58:56.337Z,79.90
2019-03-31T04:01:26.868Z,80.40
2019-03-31T04:03:55.554Z,80.70
2019-03-31T04:06:24.433Z,80.60
2019-03-31T04:08:54.040Z,80.30
2019-03-31T04:11:23.864Z,80.70
2019-03-31T04:13:52.753Z,80.00
2019-03-31T04:16:21.651Z,80.20
2019-03-31T04:18:50.432Z,80.40
2019-03-31T04:21:19.423Z,80.10
2019-03-31T04:23:48.319Z,80.30
2019-03-31T04:26:17.218Z,80.30
2019-03-31T04:28:46.200Z,80.40
2019-03-31T04:31:15.089Z,80.80
2019-03-31T04:33:51.468Z,81.00
2019-03-31T04:36:14.815Z,81.10
2019-03-31T04:38:43.706Z,81.10
2019-03-31T04:41:12.605Z,81.10
2019-03-31T04:43:41.512Z,81.30
2019-03-31T04:46:10.469Z,81.20
2019-03-31T04:48:39.371Z,81.40
2019-03-31T04:51:08.159Z,81.50
2019-03-31T04:53:37.051Z,81.90
2019-03-31T04:56:05.939Z,81.70
2019-03-31T04:58:34.831Z,81.30
2019-03-31T05:01:03.825Z,81.10
2019-03-31T05:03:32.714Z,81.10
2019-03-31T05:06:01.594Z,81.60
2019-03-31T05:08:30.408Z,81.50
2019-03-31T05:10:59.181Z,81.40
2019-03-31T05:13:28.275Z,81.40
2019-03-31T05:15:57.168Z,81.50
2019-03-31T05:18:26.062Z,81.50
2019-03-31T05:20:54.946Z,81.90
2019-03-31T05:23:23.840Z,82.00
2019-03-31T05:25:52.629Z,81.40
2019-03-31T05:28:21.620Z,81.30
2019-03-31T05:30:50.512Z,80.90
2019-03-31T05:33:19.708Z,81.00
2019-03-31T05:35:48.587Z,81.10
2019-03-31T05:38:17.385Z,81.20
2019-03-31T05:40:46.279Z,81.00
2019-03-31T05:43:15.275Z,80.60
2019-03-31T05:45:44.144Z,80.10
2019-03-31T05:48:13.154Z,80.10
2019-03-31T05:50:42.047Z,80.00
2019-03-31T05:53:10.834Z,79.20
2019-03-31T05:55:39.723Z,78.80
2019-03-31T05:58:10.245Z,78.20
2019-03-31T06:00:41.189Z,78.40
2019-03-31T06:03:10.189Z,78.20
2019-03-31T06:05:38.975Z,78.30
2019-03-31T06:08:07.861Z,77.70
2019-03-31T06:10:36.751Z,76.80
2019-03-31T06:13:05.746Z,76.60
2019-03-31T06:15:34.637Z,75.90
2019-03-31T06:18:03.425Z,76.00
2019-03-31T06:20:32.317Z,75.60
2019-03-31T06:23:01.310Z,75.50
2019-03-31T06:25:30.198Z,75.10
2019-03-31T06:27:59.090Z,74.20
2019-03-31T06:30:27.981Z,73.50
2019-03-31T06:32:56.768Z,73.40
2019-03-31T06:35:25.549Z,73.00
2019-03-31T06:37:54.344Z,72.20
2019-03-31T06:40:23.338Z,71.30
2019-03-31T06:42:52.231Z,70.80
2019-03-31T06:45:22.341Z,70.00
2019-03-31T06:47:51.236Z,69.90
2019-03-31T06:50:20.031Z,69.70
2019-03-31T06:52:48.819Z,69.20
2019-03-31T06:55:17.917Z,69.20
2019-03-31T06:57:46.705Z,68.90
2019-03-31T07:00:16.001Z,68.80
2019-03-31T07:02:44.916Z,68.60
2019-03-31T07:05:13.984Z,68.60
2019-03-31T07:07:42.980Z,68.00
2019-03-31T07:10:12.058Z,67.80
2019-03-31T07:12:41.167Z,68.40
2019-03-31T07:15:11.184Z,68.40
2019-03-31T07:17:39.974Z,68.50
2019-03-31T07:20:10.751Z,68.70
2019-03-31T07:22:39.588Z,68.60
2019-03-31T07:25:12.413Z,68.50
2019-03-31T07:27:41.580Z,68.20
2019-03-31T07:30:12.815Z,68.60
2019-03-31T07:32:41.714Z,68.10
2019-03-31T07:35:18.278Z,67.10
2019-03-31T07:37:47.545Z,66.80
2019-03-31T07:40:15.510Z,66.60
2019-03-31T07:42:43.749Z,66.80
2019-03-31T07:45:14.983Z,67.10
2019-03-31T07:47:44.514Z,66.20
2019-03-31T07:50:18.083Z,66.20
2019-03-31T07:52:47.075Z,66.50
2019-03-31T07:55:17.867Z,66.70
2019-03-31T07:57:49.640Z,66.70
2019-03-31T08:00:21.019Z,66.70
2019-03-31T08:02:50.017Z,66.10
2019-03-31T08:05:32.398Z,66.10
2019-03-31T08:07:49.634Z,66.60
2019-03-31T08:10:18.990Z,65.40
2019-03-31T08:12:47.823Z,65.10
2019-03-31T08:15:17.026Z,65.10
2019-03-31T08:17:46.116Z,65.20
2019-03-31T08:20:17.567Z,65.40
2019-03-31T08:22:46.560Z,64.60
2019-03-31T08:25:16.075Z,64.30
2019-03-31T08:27:45.263Z,64.30
2019-03-31T08:30:15.177Z,64.00
2019-03-31T08:32:44.072Z,63.80
2019-03-31T08:35:13.418Z,64.40
2019-03-31T08:37:42.362Z,64.40
2019-03-31T08:40:12.481Z,65.50
2019-03-31T08:42:41.684Z,65.20
2019-03-31T08:45:10.900Z,64.90
2019-03-31T08:47:39.878Z,64.60
2019-03-31T08:50:09.171Z,64.50
2019-03-31T08:52:38.160Z,65.20
2019-03-31T08:55:07.489Z,65.90
2019-03-31T08:57:36.353Z,66.40
2019-03-31T09:00:07.394Z,66.60
2019-03-31T09:02:37.307Z,66.70
2019-03-31T09:05:08.893Z,67.30
2019-03-31T09:07:37.944Z,67.40
2019-03-31T09:10:09.305Z,67.60
2019-03-31T09:12:39.045Z,67.40
2019-03-31T09:15:10.157Z,67.10
2019-03-31T09:17:39.162Z,66.70
2019-03-31T09:20:08.551Z,66.60
2019-03-31T09:22:37.649Z,65.80
2019-03-31T09:25:07.360Z,65.00
2019-03-31T09:27:36.136Z,64.10
2019-03-31T09:30:10.260Z,64.40
2019-03-31T09:32:47.751Z,64.30
2019-03-31T09:35:16.953Z,63.10
2019-03-31T09:37:46.057Z,62.20
2019-03-31T09:40:16.880Z,62.10
2019-03-31T09:42:45.886Z,61.30
2019-03-31T09:45:17.366Z,60.20
2019-03-31T09:47:47.497Z,58.00
2019-03-31T09:50:17.507Z,54.90
2019-03-31T09:52:46.777Z,52.50
2019-03-31T09:55:15.858Z,52.60
2019-03-31T09:57:44.848Z,52.90
2019-03-31T10:00:16.521Z,53.40
2019-03-31T10:02:45.600Z,54.10
2019-03-31T10:05:15.002Z,55.10
2019-03-31T10:07:44.098Z,54.50
2019-03-31T10:10:19.231Z,52.50
2019-03-31T10:12:48.436Z,48.50
2019-03-31T10:15:18.223Z,47.10
2019-03-31T10:17:47.131Z,48.30
2019-03-31T10:20:16.125Z,49.10
2019-03-31T10:22:45.230Z,50.50
2019-03-31T10:25:14.530Z,50.40
2019-03-31T10:27:43.756Z,50.70
2019-03-31T10:30:13.054Z,50.20
2019-03-31T10:32:42.250Z,48.10
2019-03-31T10:35:11.230Z,47.10
2019-03-31T10:37:40.251Z,46.50
2019-03-31T10:40:09.756Z,45.60
2019-03-31T10:42:38.494Z,44.60
2019-03-31T10:45:08.231Z,42.60
2019-03-31T10:47:37.601Z,40.50
2019-03-31T10:50:07.952Z,40.10
2019-03-31T10:52:37.283Z,40.50
2019-03-31T10:55:10.536Z,38.70
2019-03-31T10:57:42.198Z,38.20
2019-03-31T11:00:13.033Z,39.90
2019-03-31T11:02:42.715Z,39.30
2019-03-31T11:05:11.776Z,38.70
2019-03-31T11:07:41.550Z,38.00
2019-03-31T11:10:11.731Z,37.70
2019-03-31T11:12:40.855Z,37.00
2019-03-31T11:15:10.262Z,35.90
2019-03-31T11:17:42.407Z,37.40
2019-03-31T11:20:14.823Z,37.90
2019-03-31T11:22:50.316Z,37.70
2019-03-31T11:25:25.357Z,37.90
2019-03-31T11:27:55.858Z,38.40
2019-03-31T11:30:26.605Z,39.10
2019-03-31T11:32:57.944Z,39.90
2019-03-31T11:35:30.434Z,40.40
2019-03-31T11:38:00.031Z,40.10
2019-03-31T11:40:31.703Z,40.00
2019-03-31T11:43:01.023Z,40.20
2019-03-31T11:45:31.344Z,40.30
2019-03-31T11:48:00.860Z,40.30
2019-03-31T11:50:31.553Z,40.20
2019-03-31T11:53:04.616Z,40.40
2019-03-31T11:55:36.515Z,40.10
2019-03-31T11:58:07.575Z,39.90
2019-03-31T12:00:41.158Z,38.60
2019-03-31T12:03:13.987Z,35.40
2019-03-31T12:05:44.861Z,34.30
2019-03-31T12:08:16.594Z,34.10
2019-03-31T12:10:47.229Z,32.70
2019-03-31T12:13:16.071Z,31.10
2019-03-31T12:15:44.861Z,29.70
2019-03-31T12:18:13.853Z,28.10
2019-03-31T12:20:42.652Z,26.80
2019-03-31T12:23:11.533Z,25.40
2019-03-31T12:25:40.320Z,25.10
2019-03-31T12:28:09.107Z,23.40
2019-03-31T12:30:38.003Z,23.40
2019-03-31T12:33:06.904Z,23.80
2019-03-31T12:35:35.780Z,24.90
2019-03-31T12:38:04.878Z,26.10
2019-03-31T12:40:36.205Z,27.10
2019-03-31T12:43:05.546Z,27.70
2019-03-31T12:45:34.523Z,28.60
2019-03-31T12:48:03.309Z,29.20
2019-03-31T12:50:33.082Z,29.50
2019-03-31T12:53:02.114Z,29.80
2019-03-31T12:55:31.203Z,30.30
2019-03-31T12:58:00.196Z,31.00
2019-03-31T13:00:29.092Z,31.30
2019-03-31T13:02:58.069Z,30.70
2019-03-31T13:05:26.872Z,30.00
2019-03-31T13:07:56.817Z,31.30
2019-03-31T13:10:25.980Z,32.70
2019-03-31T13:12:54.755Z,31.50
2019-03-31T13:15:23.664Z,28.90
2019-03-31T13:17:52.662Z,27.90
2019-03-31T13:20:21.547Z,27.10
2019-03-31T13:22:50.538Z,26.10
2019-03-31T13:25:19.428Z,24.60
2019-03-31T13:27:48.526Z,23.70
2019-03-31T13:30:17.531Z,23.20
2019-03-31T13:32:46.395Z,22.40
2019-03-31T13:35:15.404Z,23.30
2019-03-31T13:37:44.393Z,22.70
2019-03-31T13:40:13.698Z,22.90
2019-03-31T13:42:42.787Z,22.30
2019-03-31T13:45:11.876Z,22.30
2019-03-31T13:47:40.801Z,22.00
2019-03-31T13:50:10.178Z,21.30
2019-03-31T13:52:38.966Z,21.90
2019-03-31T13:55:09.207Z,21.70
2019-03-31T13:57:39.784Z,21.10
2019-03-31T14:00:11.117Z,21.40
2019-03-31T14:02:41.494Z,21.30
2019-03-31T14:05:10.588Z,22.10
2019-03-31T14:07:39.583Z,22.20
2019-03-31T14:10:08.715Z,22.40
2019-03-31T14:12:37.652Z,23.00
2019-03-31T14:15:18.948Z,24.10
2019-03-31T14:17:40.174Z,25.70
2019-03-31T14:20:09.226Z,26.80
2019-03-31T14:22:57.391Z,27.70
2019-03-31T14:25:26.391Z,27.60
2019-03-31T14:27:55.270Z,26.50
2019-03-31T14:30:24.318Z,25.80
2019-03-31T14:32:53.373Z,25.60
2019-03-31T14:35:22.371Z,25.60
2019-03-31T14:37:51.359Z,24.70
2019-03-31T14:40:20.577Z,24.50
2019-03-31T14:42:49.343Z,24.50
2019-03-31T14:45:29.692Z,24.10
2019-03-31T14:47:59.954Z,24.00
2019-03-31T14:50:33.602Z,23.70
2019-03-31T14:53:02.526Z,24.40
2019-03-31T14:55:31.511Z,25.10
2019-03-31T14:58:00.500Z,26.30
2019-03-31T15:00:29.287Z,25.80
2019-03-31T15:02:58.181Z,25.70
2019-03-31T15:05:27.177Z,25.70
2019-03-31T15:07:58.467Z,25.70
2019-03-31T15:10:26.593Z,25.30
2019-03-31T15:12:55.385Z,26.20
2019-03-31T15:15:24.377Z,27.10
2019-03-31T15:17:53.678Z,28.00
2019-03-31T15:20:22.567Z,28.80
2019-03-31T15:22:52.175Z,28.60
2019-03-31T15:25:21.072Z,28.40
2019-03-31T15:27:50.058Z,28.40
2019-03-31T15:30:18.966Z,28.50
2019-03-31T15:32:47.741Z,28.70
2019-03-31T15:35:16.630Z,28.10
2019-03-31T15:37:45.417Z,28.50
2019-03-31T15:40:14.311Z,28.70
2019-03-31T15:42:43.405Z,27.90
2019-03-31T15:45:12.492Z,27.80
2019-03-31T15:47:41.392Z,27.80
2019-03-31T15:50:10.399Z,27.30
2019-03-31T15:52:39.131Z,26.70
2019-03-31T15:55:08.760Z,26.60
2019-03-31T15:57:37.769Z,26.60
2019-03-31T16:00:08.875Z,26.40
2019-03-31T16:02:37.705Z,26.50
2019-03-31T16:05:08.602Z,26.90
2019-03-31T16:07:37.312Z,27.40
2019-03-31T16:10:06.927Z,27.80
2019-03-31T16:12:35.715Z,27.50
2019-03-31T16:15:06.041Z,28.00
2019-03-31T16:17:34.935Z,28.20
2019-03-31T16:20:04.743Z,28.10
2019-03-31T16:22:33.636Z,28.50
2019-03-31T16:25:06.919Z,28.70
2019-03-31T16:27:35.703Z,28.00
2019-03-31T16:30:07.074Z,27.80
2019-03-31T16:32:36.044Z,28.80
2019-03-31T16:35:05.552Z,28.90
2019-03-31T16:37:34.560Z,28.90
2019-03-31T16:40:04.686Z,29.10
2019-03-31T16:42:33.654Z,29.90
2019-03-31T16:45:02.559Z,30.50
2019-03-31T16:47:31.449Z,31.60
2019-03-31T16:50:00.350Z,33.20
2019-03-31T16:52:29.443Z,33.90
2019-03-31T16:54:58.120Z,33.90
2019-03-31T16:57:27.012Z,34.50
2019-03-31T16:59:55.802Z,35.20
2019-03-31T17:02:24.591Z,35.40
2019-03-31T17:04:53.580Z,36.00
2019-03-31T17:07:22.368Z,36.90
2019-03-31T17:09:52.058Z,37.90
2019-03-31T17:12:21.071Z,37.90
2019-03-31T17:14:49.860Z,38.00
2019-03-31T17:17:18.651Z,38.10
2019-03-31T17:19:47.437Z,38.60
2019-03-31T17:22:16.223Z,39.70
2019-03-31T17:24:45.114Z,40.80
2019-03-31T17:27:14.217Z,41.00
2019-03-31T17:29:43.304Z,42.00
2019-03-31T17:32:12.092Z,43.00
2019-03-31T17:34:40.982Z,43.60
2019-03-31T17:37:09.875Z,44.40
2019-03-31T17:39:38.769Z,44.90
2019-03-31T17:42:07.756Z,44.90
2019-03-31T17:44:36.547Z,45.50
2019-03-31T17:47:05.440Z,46.10
2019-03-31T17:49:34.183Z,47.30
2019-03-31T17:52:03.014Z,48.30
2019-03-31T17:54:31.906Z,49.40
2019-03-31T17:57:00.793Z,50.30
2019-03-31T17:59:29.580Z,51.00
2019-03-31T18:01:58.369Z,52.00
2019-03-31T18:04:27.360Z,52.10
2019-03-31T18:06:56.157Z,52.60
2019-03-31T18:09:24.935Z,53.40
2019-03-31T18:11:53.832Z,53.70
2019-03-31T18:14:22.719Z,54.00
2019-03-31T18:16:51.610Z,54.00
2019-03-31T18:19:20.503Z,54.10
2019-03-31T18:21:49.406Z,54.70
2019-03-31T18:24:18.180Z,55.00
2019-03-31T18:26:46.978Z,55.00
2019-03-31T18:29:15.753Z,55.30
2019-03-31T18:31:44.533Z,55.40
2019-03-31T18:34:34.322Z,55.40
2019-03-31T18:37:03.220Z,55.80
2019-03-31T18:39:32.002Z,55.80
2019-03-31T18:42:01.012Z,56.00
2019-03-31T18:44:29.888Z,55.90
2019-03-31T18:46:58.676Z,55.90
2019-03-31T18:49:27.464Z,55.90
2019-03-31T18:51:56.353Z,55.70
2019-03-31T18:54:26.676Z,56.10
2019-03-31T18:57:09.392Z,56.00
2019-03-31T18:59:41.984Z,56.00
2019-03-31T19:02:15.142Z,56.00
2019-03-31T19:04:48.465Z,56.30
2019-03-31T19:07:27.584Z,56.10
2019-03-31T19:10:00.778Z,56.30
2019-03-31T19:12:33.763Z,56.60
2019-03-31T19:15:19.650Z,56.80
2019-03-31T19:17:52.661Z,56.70
2019-03-31T19:20:41.704Z,56.80
2019-03-31T19:23:18.078Z,57.10
2019-03-31T19:25:48.595Z,57.00
2019-03-31T19:28:34.484Z,57.00
2019-03-31T19:31:04.999Z,57.00
2019-03-31T19:33:38.510Z,57.20
2019-03-31T19:36:11.727Z,57.50
2019-03-31T19:38:51.550Z,57.30
2019-03-31T19:41:27.915Z,57.60
2019-03-31T19:44:10.449Z,57.70
2019-03-31T19:46:43.823Z,57.90
2019-03-31T19:49:14.351Z,58.00
2019-03-31T19:52:00.137Z,58.10
2019-03-31T19:54:30.467Z,57.90
2019-03-31T19:57:12.052Z,58.10
2019-03-31T19:59:53.852Z,58.40
2019-03-31T20:02:30.210Z,58.50
2019-03-31T20:05:12.616Z,58.60
2019-03-31T20:07:59.221Z,58.50
2019-03-31T20:10:33.353Z,58.80
2019-03-31T20:13:09.801Z,58.90
2019-03-31T20:15:56.407Z,59.20
2019-03-31T20:18:29.807Z,59.20
2019-03-31T20:21:15.474Z,59.20
2019-03-31T20:23:48.987Z,59.40
2019-03-31T20:26:21.872Z,59.60
2019-03-31T20:28:52.401Z,59.60
2019-03-31T20:31:39.313Z,59.40
2019-03-31T20:34:12.503Z,59.50
2019-03-31T20:36:45.796Z,59.70
2019-03-31T20:39:16.227Z,59.90
2019-03-31T20:41:58.939Z,60.00
2019-03-31T20:44:27.110Z,60.00
2019-03-31T20:46:55.902Z,59.90
2019-03-31T20:49:24.801Z,60.50
2019-03-31T20:51:53.682Z,61.00
2019-03-31T20:54:22.479Z,60.50
2019-03-31T20:56:51.264Z,60.60
2019-03-31T20:59:20.792Z,60.50
2019-03-31T21:01:53.250Z,60.60
2019-03-31T21:04:21.311Z,60.90
2019-03-31T21:06:50.303Z,61.30
2019-03-31T21:09:19.401Z,62.10
2019-03-31T21:11:48.291Z,62.10
2019-03-31T21:14:17.591Z,62.40
2019-03-31T21:16:47.561Z,63.00
2019-03-31T21:19:19.125Z,63.50
2019-03-31T21:21:49.119Z,63.50
2019-03-31T21:24:22.757Z,63.20
2019-03-31T21:27:00.166Z,63.30
2019-03-31T21:29:34.659Z,63.30
2019-03-31T21:32:06.852Z,63.40
2019-03-31T21:34:41.748Z,63.30
2019-03-31T21:37:13.953Z,63.50
2019-03-31T21:39:45.660Z,63.70
2019-03-31T21:42:16.930Z,64.10
2019-03-31T21:44:53.324Z,63.90
2019-03-31T21:47:25.687Z,64.30
2019-03-31T21:49:56.728Z,64.40
2019-03-31T21:52:30.613Z,65.00
2019-03-31T21:55:01.081Z,64.60
2019-03-31T21:57:34.643Z,65.60
2019-03-31T22:00:16.005Z,65.20
2019-03-31T22:02:51.890Z,64.60
2019-03-31T22:05:25.594Z,64.70
2019-03-31T22:08:03.894Z,64.90
2019-03-31T22:10:39.349Z,65.00
2019-03-31T22:13:13.605Z,65.70
2019-03-31T22:15:46.474Z,65.40
2019-03-31T22:18:21.019Z,65.30
2019-03-31T22:20:55.098Z,65.60
2019-03-31T22:23:25.553Z,66.00
2019-03-31T22:25:55.386Z,66.00
2019-03-31T22:28:25.459Z,65.90
2019-03-31T22:30:57.833Z,66.10
2019-03-31T22:33:28.789Z,66.10
2019-03-31T22:36:17.222Z,65.90
2019-03-31T22:38:47.820Z,66.20
2019-03-31T22:41:18.764Z,66.50
2019-03-31T22:43:50.686Z,66.50
2019-03-31T22:46:21.366Z,66.80
2019-03-31T22:48:52.920Z,66.90
2019-03-31T22:51:23.174Z,66.40
2019-03-31T22:53:52.337Z,66.10
2019-03-31T22:56:21.348Z,66.10
2019-03-31T22:58:54.893Z,66.20
2019-03-31T23:01:28.694Z,66.10
2019-03-31T23:03:59.350Z,65.90
2019-03-31T23:06:28.591Z,65.80
2019-03-31T23:08:59.864Z,65.40
2019-03-31T23:11:31.698Z,65.60
2019-03-31T23:14:04.483Z,65.60
2019-03-31T23:16:32.555Z,65.40
2019-03-31T23:19:01.436Z,65.20
2019-03-31T23:21:30.227Z,65.00
2019-03-31T23:23:59.013Z,64.80
2019-03-31T23:26:27.909Z,64.80
2019-03-31T23:28:57.291Z,65.00
2019-03-31T23:31:26.298Z,65.20
2019-03-31T23:33:54.981Z,65.10
2019-03-31T23:36:23.872Z,65.00
2019-03-31T23:38:52.663Z,65.00
2019-03-31T23:41:22.388Z,64.40
2019-03-31T23:43:51.261Z,64.20
2019-03-31T23:46:20.049Z,64.20
2019-03-31T23:48:48.939Z,63.90
2019-03-31T23:51:17.836Z,63.70
2019-03-31T23:53:46.618Z,63.40
2019-03-31T23:56:15.306Z,63.60
2019-03-31T23:58:44.096Z,63.30
